LJPZLIPQ

Guest
Details From LJPZ - PORTOROZ
To LIPQ - Ronchi Dei Legionari
Flight Number -
Tags generated
Created
Modified
Stats Distance 22 nm / 41 km
Max Altitude 100 ft / 30 m
Waypoints 3
Social Downloads 2
Likes 0
Share VATSIM

Download

Looking for another format? Having issues loading an existing format? Contact us
Advertisement - Login to hide

Notes

Basic altitude profile: - Ascent Rate: 2500ft/min - Ascent Speed: 250kts - Cruise Altitude: 35000ft - Cruise Speed: 420kts - Descent Rate: 1500ft/min - Descent Speed: 250kts Options: - Use NATs: yes - Use PACOTS: yes - Use low airways: yes - Use high airways: yes

Route

LJPZ PZ LIPQ

ID Type Via Altitude Latitude Longitude Leg Dist Tot Dist Heading (true) Name
O LJPZ APT - 0 ft / 0 m 45.47244˚ 13.61568˚ - 0 nm - PORTOROZ
PZ NDB - 100 ft / 30 m 45.47747˚ 13.61492˚ 0 nm 0 nm 354° / 354° PORTOROZ NDB
O LIPQ APT - 0 ft / 0 m 45.82786˚ 13.46666˚ 21 nm 22 nm 344° / 343° Ronchi Dei Legionari

Altitude Profile

Advertisement - Login to hide

LJPZ

Details ICAO LJPZ (POW)
Name PORTOROZ
Region Slovenia
Timezone Europe/Ljubljana (UTC+2.0)
Stats Elevation 7 ft / 2 m (AMSL)
Location 45.472445° 13.615681°
Runways 1
Magnetic Variation 3.494° E

METAR

LJPZ 252130Z AUTO 11004KT 9999 NSC 19/16 Q1017

Decode

TAF

Not found

Departure Runways

ID Width Length Bearing (true) Bearing (mag) Surface Threshold Offset Overrun Length
15 98 ft / 30 m 3,939 ft / 1,201 m 151.28° 147.79° Asphalt 0 ft / 0 m 0 ft / 0 m
33 98 ft / 30 m 3,939 ft / 1,201 m 331.29° 327.80° Asphalt 751 ft / 229 m 0 ft / 0 m

LIPQ

Details ICAO LIPQ (TRS)
Name Ronchi Dei Legionari
Region Italy
Timezone Europe/Rome (UTC+2.0)
Stats Elevation 37 ft / 11 m (AMSL)
Location 45.827857° 13.466663°
Runways 1
Magnetic Variation 3.482° E

METAR

LIPQ 252120Z 13004KT 050V170 CAVOK 22/14 Q1017

Decode

TAF

TAF LIPQ 251700Z 2518/2618 VRB05KT 9999 SCT070

Decode

Destination Runways

ID Width Length Bearing (true) Bearing (mag) Surface Threshold Offset Overrun Length
09 148 ft / 45 m 9,819 ft / 2,993 m 90.42° 86.94° Asphalt 823 ft / 251 m 0 ft / 0 m
27 148 ft / 45 m 9,819 ft / 2,993 m 270.44° 266.96° Asphalt 10 ft / 3 m 190 ft / 58 m

Approach Navaids

Runway Type Ident Frequency Range Bearing (true) Bearing (mag) Slope Elevation
09 Localiser RNC 110.75 MHz 18 nm / 33 km 90.43° 86.95° - 43 ft / 13 m (AMSL)
09 Glidescope RNC 110.75 MHz 10 nm / 19 km 90.43° 86.95° 3.00° 82 ft / 25 m (AMSL)
09 DME RNC 110.75 MHz 18 nm / 33 km - - - 53 ft / 16 m (AMSL)

Popular Alternatives